AGGM

Munda Airport

Solomon Islands
METAR AGGM 160600Z 23005KT 9999 HZ FEW018 BKN300 31/25 Q1004
Observed Flight Rules
Dec-16 @ 06:00 UTC (5 hours ago) Visual Flight Rules
Wind Visibility Clouds Conditions
230° at 5 knots 10,000+ meters
  • Few at 1,800' AGL
  • Broken at 30,000' AGL
  • Haze
Temperatures Readings
Current 31°C / 88°F
Dewpoint 25°C / 77°F
Humidity 70%
Altimeter 29.65" Hg
Pressure 1004 hPa
Elevation 6
METAR AGGM 160600Z 23005KT 9999 HZ FEW018 BKN300 31/25 Q1004
Observed Flight Rules
Dec-16 @ 06:00 UTC
(5 hours ago)
VFR
Wind Visibility
230° at 5 knots 10,000+ meters
Clouds
  • Few at 1,800' AGL
  • Broken at 30,000' AGL
Conditions
  • Haze
Temperature Dewpoint
31°C / 88°F 25°C / 77°F
Humidity Altimeter Pressure
70% 29.65" Hg 1004 hPa